Time;durP1;ratioP1;P1;durP2;ratioP2;P2;SDS_P1;SDS_P2;PMS_P1;PMS_P2;Temp;Humidity;BMP_temperature;BMP_pressure;BME280_temperature;BME280_humidity;BME280_pressure;Samples;Min_cycle;Max_cycle;Signal;HPM_P1;HPM_P2
2023/04/01 00:00:03;;;;;;;;;;;;;;;9.28;100.00;99212.53;5072799;28;19926;-80
2023/04/01 00:02:38;;;;;;;;;;;;;;;9.26;100.00;99209.25;5101155;28;19915;-80
2023/04/01 00:05:07;;;;;;;;;;;;;;;9.26;100.00;99206.59;5102631;28;19931;-80
2023/04/01 00:07:38;;;;;;;;;;;;;;;9.23;100.00;99214.84;5100315;28;19916;-80
2023/04/01 00:10:09;;;;;;;;;;;;;;;9.21;100.00;99214.19;5096963;28;19920;-80
2023/04/01 00:12:40;;;;;;;;;;;;;;;9.23;100.00;99218.31;5084809;28;20320;-80
2023/04/01 00:15:11;;;;;;;;;;;;;;;9.24;100.00;99219.94;5099770;28;19955;-79
2023/04/01 00:17:41;;;;;;;;;;;;;;;9.23;100.00;99218.31;5109177;28;19919;-80
2023/04/01 00:20:12;;;;;;;;;;;;;;;9.22;100.00;99211.38;5121503;27;19927;-80
2023/04/01 00:22:42;;;;;;;;;;;;;;;9.20;100.00;99218.66;5091686;28;19942;-80
2023/04/01 00:25:11;;;;;;;;;;;;;;;9.18;100.00;99216.19;5107829;28;19919;-80
2023/04/01 00:27:42;;;;;;;;;;;;;;;9.18;100.00;99217.97;5083688;28;19920;-80
2023/04/01 00:30:12;;;;;;;;;;;;;;;9.18;100.00;99223.25;5106999;28;19920;-80
2023/04/01 00:32:41;;;;;;;;;;;;;;;9.17;100.00;99224.25;5090486;28;20256;-80
2023/04/01 00:35:12;;;;;;;;;;;;;;;9.17;100.00;99218.97;5085771;28;19920;-80
2023/04/01 00:37:42;;;;;;;;;;;;;;;9.18;100.00;99216.19;5101671;28;19920;-79
2023/04/01 00:40:23;;;;;;;;;;;;;;;9.19;100.00;99224.88;5109050;28;19920;-80
2023/04/01 00:42:52;;;;;;;;;;;;;;;9.19;100.00;99224.88;5102745;28;19919;-79
2023/04/01 00:45:39;;;;;;;;;;;;;;;9.22;100.00;99221.13;5088556;28;19920;-81
2023/04/01 00:48:31;;;;;;;;;;;;;;;9.21;100.00;99219.44;5118027;27;19934;-80
2023/04/01 00:51:02;;;;;;;;;;;;;;;9.22;100.00;99226.41;5082460;28;20002;-80
2023/04/01 00:53:33;;;;;;;;;;;;;;;9.23;100.00;99223.59;5091754;28;19927;-80
2023/04/01 00:56:23;;;;;;;;;;;;;;;9.22;100.00;99219.28;5106858;28;19967;-79
2023/04/01 00:58:58;;;;;;;;;;;;;;;9.21;100.00;99224.72;5074142;28;19919;-80
2023/04/01 01:01:29;;;;;;;;;;;;;;;9.22;100.00;99221.91;5105617;28;19927;-79
2023/04/01 01:04:00;;;;;;;;;;;;;;;9.21;100.00;99224.72;5096315;27;19925;-80
2023/04/01 01:06:40;;;;;;;;;;;;;;;9.22;100.00;99221.91;5126198;27;20368;-80
2023/04/01 01:09:29;;;;;;;;;;;;;;;9.22;100.00;99221.13;5095651;28;19969;-80
2023/04/01 01:12:14;;;;;;;;;;;;;;;9.21;100.00;99222.91;5117122;27;20393;-80
2023/04/01 01:15:04;;;;;;;;;;;;;;;9.19;100.00;99219.63;5104960;27;19919;-80
2023/04/01 01:17:39;;;;;;;;;;;;;;;9.18;100.00;99223.25;5096124;27;20442;-81
2023/04/01 01:20:11;;;;;;;;;;;;;;;9.20;100.00;99228.38;5102438;27;19915;-80
2023/04/01 01:22:57;;;;;;;;;;;;;;;9.20;100.00;99231.00;5105210;27;19916;-80
2023/04/01 01:25:42;;;;;;;;;;;;;;;9.17;100.00;99222.41;5084701;28;19927;-80
2023/04/01 01:28:31;;;;;;;;;;;;;;;9.19;100.00;99230.16;5072352;27;19916;-80
2023/04/01 01:31:15;;;;;;;;;;;;;;;9.18;100.00;99225.88;5096247;28;19937;-80
2023/04/01 01:34:07;;;;;;;;;;;;;;;9.18;100.00;99229.38;5089570;28;19918;-79
2023/04/01 01:36:38;;;;;;;;;;;;;;;9.18;100.00;99237.28;5096244;27;19929;-80
2023/04/01 01:39:12;;;;;;;;;;;;;;;9.17;100.00;99232.16;5090469;28;19915;-80
2023/04/01 01:41:44;;;;;;;;;;;;;;;9.15;100.00;99237.59;5106021;28;19915;-80
2023/04/01 01:44:16;;;;;;;;;;;;;;;9.14;100.00;99237.78;5109438;28;19924;-80
2023/04/01 01:46:46;;;;;;;;;;;;;;;9.12;100.00;99243.22;5109292;28;19978;-79
2023/04/01 01:49:17;;;;;;;;;;;;;;;9.09;100.00;99240.91;5104037;28;19923;-80
2023/04/01 01:51:47;;;;;;;;;;;;;;;9.07;100.00;99248.13;5119701;28;19915;-79
2023/04/01 01:54:17;;;;;;;;;;;;;;;9.03;100.00;99254.75;5082833;28;19966;-80
2023/04/01 01:56:46;;;;;;;;;;;;;;;9.00;100.00;99255.88;5105407;28;20833;-80
2023/04/01 01:59:15;;;;;;;;;;;;;;;8.98;100.00;99249.94;5090901;28;20014;-80
2023/04/01 02:01:46;;;;;;;;;;;;;;;8.97;100.00;99245.66;5107759;28;20002;-80
2023/04/01 02:04:15;;;;;;;;;;;;;;;8.97;100.00;99258.00;5105962;28;20027;-80
2023/04/01 02:06:58;;;;;;;;;;;;;;;8.98;100.00;99257.03;5091559;28;19916;-80
2023/04/01 02:09:29;;;;;;;;;;;;;;;8.95;100.00;99254.72;5097926;28;19915;-80
2023/04/01 02:12:08;;;;;;;;;;;;;;;8.96;100.00;99267.72;5086083;28;19951;-80
2023/04/01 02:14:43;;;;;;;;;;;;;;;9.00;100.00;99270.88;5078187;28;20038;-80
2023/04/01 02:17:16;;;;;;;;;;;;;;;9.00;100.00;99262.97;5074684;28;19923;-80
2023/04/01 02:20:00;;;;;;;;;;;;;;;9.03;100.00;99270.56;5067206;28;20663;-79
2023/04/01 02:22:32;;;;;;;;;;;;;;;9.06;100.00;99270.22;5095772;28;19922;-80
2023/04/01 02:25:05;;;;;;;;;;;;;;;9.05;100.00;99269.38;5096049;28;20014;-80
2023/04/01 02:27:35;;;;;;;;;;;;;;;9.04;100.00;99269.56;5098853;28;19923;-80
2023/04/01 02:30:06;;;;;;;;;;;;;;;9.04;100.00;99277.47;5109847;28;20020;-80
2023/04/01 02:32:37;;;;;;;;;;;;;;;9.03;100.00;99275.81;5091469;28;19922;-80
2023/04/01 02:35:10;;;;;;;;;;;;;;;9.02;100.00;99279.44;5102406;27;20007;-80
2023/04/01 02:37:43;;;;;;;;;;;;;;;9.01;100.00;99273.34;5114356;27;19998;-80
2023/04/01 02:40:14;;;;;;;;;;;;;;;9.00;100.00;99274.31;5073059;27;20329;-80
2023/04/01 02:42:44;;;;;;;;;;;;;;;9.01;100.00;99280.41;5081764;28;20402;-80
2023/04/01 02:45:14;;;;;;;;;;;;;;;9.01;100.00;99283.06;5107939;27;19926;-80
2023/04/01 02:47:44;;;;;;;;;;;;;;;9.01;100.00;99281.25;5119392;27;19916;-80
2023/04/01 02:50:14;;;;;;;;;;;;;;;9.01;100.00;99277.78;5107852;27;20018;-80
2023/04/01 02:52:44;;;;;;;;;;;;;;;8.98;100.00;99284.19;5108436;27;19948;-80
2023/04/01 02:55:12;;;;;;;;;;;;;;;9.00;100.00;99292.75;5109016;27;20276;-80
2023/04/01 02:57:41;;;;;;;;;;;;;;;8.98;100.00;99283.38;5106429;27;20022;-80
2023/04/01 03:00:11;;;;;;;;;;;;;;;8.93;100.00;99295.22;5110890;27;20351;-80
2023/04/01 03:02:40;;;;;;;;;;;;;;;8.92;100.00;99290.13;5081930;27;19915;-80
2023/04/01 03:05:07;;;;;;;;;;;;;;;8.90;100.00;99297.38;5109288;27;20014;-80
2023/04/01 03:07:35;;;;;;;;;;;;;;;8.89;100.00;99295.72;5091684;27;20353;-80
2023/04/01 03:10:04;;;;;;;;;;;;;;;8.90;100.00;99292.09;5087759;27;19919;-81
2023/04/01 03:12:32;;;;;;;;;;;;;;;8.90;100.00;99295.53;5107453;27;19958;-80
2023/04/01 03:15:02;;;;;;;;;;;;;;;8.89;100.00;99299.19;5107597;27;19920;-80
2023/04/01 03:17:32;;;;;;;;;;;;;;;8.88;100.00;99301.97;5069311;27;19930;-80
2023/04/01 03:20:00;;;;;;;;;;;;;;;8.89;100.00;99309.72;5119460;27;20002;-80
2023/04/01 03:22:28;;;;;;;;;;;;;;;8.89;100.00;99306.25;5075443;27;20109;-81
2023/04/01 03:24:55;;;;;;;;;;;;;;;8.89;100.00;99308.88;5106863;27;19923;-80
2023/04/01 03:27:23;;;;;;;;;;;;;;;8.90;100.00;99310.56;5095833;27;19920;-80
2023/04/01 03:29:51;;;;;;;;;;;;;;;8.90;100.00;99308.72;5096209;27;19912;-80
2023/04/01 03:32:19;;;;;;;;;;;;;;;8.87;100.00;99324.84;5071313;28;19912;-80
2023/04/01 03:34:47;;;;;;;;;;;;;;;8.89;100.00;99327.31;5086542;27;20026;-79
2023/04/01 03:37:15;;;;;;;;;;;;;;;8.88;100.00;99313.34;5109813;27;20283;-80
2023/04/01 03:39:42;;;;;;;;;;;;;;;8.88;100.00;99320.41;5084910;27;20334;-80
2023/04/01 03:42:10;;;;;;;;;;;;;;;8.83;100.00;99325.34;5114035;27;20678;-80
2023/04/01 03:44:38;;;;;;;;;;;;;;;8.78;100.00;99318.75;5092728;27;19919;-80
2023/04/01 03:47:08;;;;;;;;;;;;;;;8.77;100.00;99327.66;5122732;27;20048;-80
2023/04/01 03:49:38;;;;;;;;;;;;;;;8.77;100.00;99330.28;5119963;27;19960;-80
2023/04/01 03:52:10;;;;;;;;;;;;;;;8.76;100.00;99330.44;5121490;27;19927;-80
2023/04/01 03:54:38;;;;;;;;;;;;;;;8.77;100.00;99338.19;5084094;27;19939;-79
2023/04/01 03:57:06;;;;;;;;;;;;;;;8.78;100.00;99329.28;5086690;27;19915;-80
2023/04/01 03:59:34;;;;;;;;;;;;;;;8.77;100.00;99335.56;5105179;27;19911;-80
2023/04/01 04:02:03;;;;;;;;;;;;;;;8.71;100.00;99338.00;5095009;27;20130;-80
2023/04/01 04:04:30;;;;;;;;;;;;;;;8.67;100.00;99348.03;5089570;28;20432;-80
2023/04/01 04:06:59;;;;;;;;;;;;;;;8.61;100.00;99343.38;5107939;28;19920;-80
2023/04/01 04:09:33;;;;;;;;;;;;;;;8.63;100.00;99346.69;5089464;28;19919;-80
2023/04/01 04:12:05;;;;;;;;;;;;;;;8.55;100.00;99356.19;5090807;28;19922;-80
2023/04/01 04:14:35;;;;;;;;;;;;;;;8.56;100.00;99354.41;5100353;27;19958;-80
2023/04/01 04:17:05;;;;;;;;;;;;;;;8.56;100.00;99357.03;5093322;28;19920;-80
2023/04/01 04:19:35;;;;;;;;;;;;;;;8.58;100.00;99364.78;5072282;28;19912;-80
2023/04/01 04:22:04;;;;;;;;;;;;;;;8.56;100.00;99365.78;5089355;28;19966;-80
2023/04/01 04:24:32;;;;;;;;;;;;;;;8.52;100.00;99364.38;5100381;28;20819;-80
2023/04/01 04:27:04;;;;;;;;;;;;;;;8.54;100.00;99373.00;5104317;28;20002;-80
2023/04/01 04:29:32;;;;;;;;;;;;;;;8.50;100.00;99374.28;5110941;28;19950;-80
2023/04/01 04:32:00;;;;;;;;;;;;;;;8.50;100.00;99373.44;5086200;28;19916;-80
2023/04/01 04:34:28;;;;;;;;;;;;;;;8.51;100.00;99381.19;5089687;28;20276;-80
2023/04/01 04:36:56;;;;;;;;;;;;;;;8.51;100.00;99383.81;5088541;28;19916;-80
2023/04/01 04:39:29;;;;;;;;;;;;;;;8.54;100.00;99390.56;5096349;28;19912;-80
2023/04/01 04:41:57;;;;;;;;;;;;;;;8.57;100.00;99387.66;5099042;28;19966;-80
2023/04/01 04:44:25;;;;;;;;;;;;;;;8.56;100.00;99392.13;5081657;28;20026;-80
2023/04/01 04:46:53;;;;;;;;;;;;;;;8.57;100.00;99395.56;5068572;28;20478;-80
2023/04/01 04:49:22;;;;;;;;;;;;;;;8.52;100.00;99401.25;5085933;28;19919;-80
2023/04/01 04:51:52;;;;;;;;;;;;;;;8.54;100.00;99404.59;5076929;28;20374;-80
2023/04/01 04:54:22;;;;;;;;;;;;;;;8.56;100.00;99407.91;5088238;28;19920;-80
2023/04/01 04:56:57;;;;;;;;;;;;;;;8.55;100.00;99414.16;5100955;28;19927;-80
2023/04/01 04:59:27;;;;;;;;;;;;;;;8.58;100.00;99420.94;5086313;28;19922;-80
2023/04/01 05:02:10;;;;;;;;;;;;;;;8.55;100.00;99418.59;5104335;28;19916;-79
2023/04/01 05:04:38;;;;;;;;;;;;;;;8.55;100.00;99431.78;5100916;28;20046;-80
2023/04/01 05:07:08;;;;;;;;;;;;;;;8.52;100.00;99427.59;5083240;28;20278;-80
2023/04/01 05:09:36;;;;;;;;;;;;;;;8.54;100.00;99437.97;5107984;28;19924;-79
2023/04/01 05:12:04;;;;;;;;;;;;;;;8.54;100.00;99433.56;5085253;28;19920;-80
2023/04/01 05:14:51;;;;;;;;;;;;;;;8.54;100.00;99436.22;5098358;28;19916;-80
2023/04/01 05:17:21;;;;;;;;;;;;;;;8.54;100.00;99440.59;5108225;28;20550;-79
2023/04/01 05:19:49;;;;;;;;;;;;;;;8.54;100.00;99444.13;5086616;28;19931;-79
2023/04/01 05:22:17;;;;;;;;;;;;;;;8.53;100.00;99442.44;5085723;28;20520;-79
2023/04/01 05:24:44;;;;;;;;;;;;;;;8.52;100.00;99450.50;5077148;28;19916;-80
2023/04/01 05:27:13;;;;;;;;;;;;;;;8.52;100.00;99451.31;5102864;28;19934;-80
2023/04/01 05:29:42;;;;;;;;;;;;;;;8.55;100.00;99460.75;5101097;28;19916;-80
2023/04/01 05:32:26;;;;;;;;;;;;;;;8.54;100.00;99465.19;5090349;28;19927;-80
2023/04/01 05:34:54;;;;;;;;;;;;;;;8.57;100.00;99471.94;5105212;28;20007;-80
2023/04/01 05:37:22;;;;;;;;;;;;;;;8.54;100.00;99473.09;5106143;28;19935;-80
2023/04/01 05:39:50;;;;;;;;;;;;;;;8.51;100.00;99477.78;5088815;28;19985;-80
2023/04/01 05:42:18;;;;;;;;;;;;;;;8.47;100.00;99485.19;5089776;28;19926;-80
2023/04/01 05:44:45;;;;;;;;;;;;;;;8.51;100.00;99488.31;5087234;28;19919;-80
2023/04/01 05:47:30;;;;;;;;;;;;;;;8.48;100.00;99489.47;5101495;28;20011;-80
2023/04/01 05:49:59;;;;;;;;;;;;;;;8.42;100.00;99496.19;5102731;28;19924;-80
2023/04/01 05:52:26;;;;;;;;;;;;;;;8.37;100.00;99502.88;5080810;28;19916;-80
2023/04/01 05:54:55;;;;;;;;;;;;;;;8.36;100.00;99506.50;5089193;28;20546;-80
2023/04/01 05:57:21;;;;;;;;;;;;;;;8.34;100.00;99508.47;5091164;28;20284;-80
2023/04/01 05:59:50;;;;;;;;;;;;;;;8.31;100.00;99507.78;5107457;28;19911;-80
2023/04/01 06:02:18;;;;;;;;;;;;;;;8.32;100.00;99519.97;5009857;28;19927;-80
2023/04/01 06:04:47;;;;;;;;;;;;;;;8.33;100.00;99526.06;5061100;28;19924;-80
2023/04/01 06:07:16;;;;;;;;;;;;;;;8.32;100.00;99529.69;5092063;28;20038;-80
2023/04/01 06:09:45;;;;;;;;;;;;;;;8.30;100.00;99531.63;5093913;28;20585;-80
2023/04/01 06:12:33;;;;;;;;;;;;;;;8.27;100.00;99532.75;5104889;28;19950;-80
2023/04/01 06:15:10;;;;;;;;;;;;;;;8.22;100.00;99535.03;5092350;28;20368;-79
2023/04/01 06:18:02;;;;;;;;;;;;;;;8.22;100.00;99535.03;5022996;28;20020;-80
2023/04/01 06:20:51;;;;;;;;;;;;;;;8.22;100.00;99542.09;5108003;28;20028;-80
2023/04/01 06:23:39;;;;;;;;;;;;;;;8.22;100.00;99547.38;5076037;28;20374;-81
2023/04/01 06:26:20;;;;;;;;;;;;;;;8.17;100.00;99559.16;5092121;28;19916;-80
2023/04/01 06:29:03;;;;;;;;;;;;;;;8.17;100.00;99567.06;5084845;28;19955;-81
2023/04/01 06:31:52;;;;;;;;;;;;;;;8.14;100.00;99556.84;5038418;28;19920;-80
2023/04/01 06:34:31;;;;;;;;;;;;;;;8.14;100.00;99566.53;5106731;28;19972;-80
2023/04/01 06:37:04;;;;;;;;;;;;;;;8.09;100.00;99574.06;5100108;28;19920;-80
2023/04/01 06:39:48;;;;;;;;;;;;;;;8.09;100.00;99581.97;5109243;28;19990;-80
2023/04/01 06:42:19;;;;;;;;;;;;;;;8.05;100.00;99589.31;5074891;28;19976;-80
2023/04/01 06:45:18;;;;;;;;;;;;;;;8.06;100.00;99583.06;5081132;28;19923;-80
2023/04/01 06:48:04;;;;;;;;;;;;;;;8.12;100.00;99585.09;5034216;28;20281;-80
2023/04/01 06:50:52;;;;;;;;;;;;;;;8.14;100.00;99600.75;5104817;28;19915;-80
2023/04/01 06:54:05;;;;;;;;;;;;;;;8.15;100.00;99611.16;5071066;28;19917;-80
2023/04/01 06:56:55;;;;;;;;;;;;;;;8.13;100.00;99602.56;5100861;28;20426;-80
2023/04/01 06:59:29;;;;;;;;;;;;;;;8.14;100.00;99609.47;5107864;28;19923;-80
2023/04/01 07:02:11;;;;;;;;;;;;;;;8.19;100.00;99617.75;5107323;28;19916;-80
2023/04/01 07:04:44;;;;;;;;;;;;;;;8.22;100.00;99623.72;5107247;27;19927;-80
2023/04/01 07:07:41;;;;;;;;;;;;;;;8.23;100.00;99620.09;5087447;27;19955;-81
2023/04/01 07:10:18;;;;;;;;;;;;;;;8.26;100.00;99625.06;5111213;27;20466;-79
2023/04/01 07:13:10;;;;;;;;;;;;;;;8.24;100.00;99643.66;5124694;27;19923;-80
2023/04/01 07:16:05;;;;;;;;;;;;;;;8.32;100.00;99642.91;5113775;27;20444;-79
2023/04/01 07:18:59;;;;;;;;;;;;;;;8.32;100.00;99650.78;5103639;27;20362;-80
2023/04/01 07:21:56;;;;;;;;;;;;;;;8.35;100.00;99649.66;5079043;27;19919;-80
2023/04/01 07:24:35;;;;;;;;;;;;;;;8.40;100.00;99664.06;5087716;28;19928;-80
2023/04/01 07:27:11;;;;;;;;;;;;;;;8.41;100.00;99672.75;5095553;27;19922;-80
2023/04/01 07:29:40;;;;;;;;;;;;;;;8.33;100.00;99665.59;5109759;27;19922;-80
2023/04/01 07:32:19;;;;;;;;;;;;;;;8.35;100.00;99670.72;5094567;27;19919;-80
2023/04/01 07:34:52;;;;;;;;;;;;;;;8.37;100.00;99680.16;5126206;27;19915;-80
2023/04/01 07:37:41;;;;;;;;;;;;;;;8.36;100.00;99683.75;5088769;28;19920;-80
2023/04/01 07:40:13;;;;;;;;;;;;;;;8.39;100.00;99693.16;5115438;27;19919;-80
2023/04/01 07:42:43;;;;;;;;;;;;;;;8.36;100.00;99699.53;5107974;27;19927;-80
2023/04/01 07:45:16;;;;;;;;;;;;;;;8.36;100.00;99712.69;5110841;27;20261;-80
2023/04/01 07:48:05;;;;;;;;;;;;;;;8.34;100.00;99714.69;5114427;27;20737;-77
2023/04/01 07:50:37;;;;;;;;;;;;;;;8.33;100.00;99713.00;5099437;28;19931;-80
2023/04/01 07:53:13;;;;;;;;;;;;;;;8.33;100.00;99720.91;5092877;27;19951;-79
2023/04/01 07:55:48;;;;;;;;;;;;;;;8.33;100.00;99723.53;5104757;27;19926;-80
2023/04/01 07:58:33;;;;;;;;;;;;;;;8.35;100.00;99726.84;5100475;28;19923;-80
2023/04/01 08:01:09;;;;;;;;;;;;;;;8.42;100.00;99742.91;5085150;28;19920;-80
2023/04/01 08:03:48;;;;;;;;;;;;;;;8.38;100.00;99744.16;5093861;27;19927;-80
2023/04/01 08:06:27;;;;;;;;;;;;;;;8.38;100.00;99755.53;5077832;28;19916;-81
2023/04/01 08:09:00;;;;;;;;;;;;;;;8.35;100.00;99757.63;5112682;27;19965;-80
2023/04/01 08:11:35;;;;;;;;;;;;;;;8.32;100.00;99772.75;5123331;27;19919;-80
2023/04/01 08:14:28;;;;;;;;;;;;;;;8.32;100.00;99778.03;5101394;28;19920;-80
2023/04/01 08:17:20;;;;;;;;;;;;;;;8.32;100.00;99777.19;5102908;27;20272;-80
2023/04/01 08:20:00;;;;;;;;;;;;;;;8.36;100.00;99770.63;5091869;27;20351;-80
2023/04/01 08:22:39;;;;;;;;;;;;;;;8.37;100.00;99785.47;5106476;27;19919;-80
2023/04/01 08:25:20;;;;;;;;;;;;;;;8.38;100.00;99804.72;5094637;27;19915;-80
2023/04/01 08:27:52;;;;;;;;;;;;;;;8.40;100.00;99789.63;5082501;27;20521;-80
2023/04/01 08:30:26;;;;;;;;;;;;;;;8.46;100.00;99810.09;5092741;27;19919;-80
2023/04/01 08:33:02;;;;;;;;;;;;;;;8.47;100.00;99803.03;5087690;27;19915;-80
2023/04/01 08:35:37;;;;;;;;;;;;;;;8.47;100.00;99814.41;5104932;27;20006;-80
2023/04/01 08:38:14;;;;;;;;;;;;;;;8.51;100.00;99823.66;5085523;27;19922;-80
2023/04/01 08:40:57;;;;;;;;;;;;;;;8.60;100.00;99819.34;5110997;27;20486;-80
2023/04/01 08:43:42;;;;;;;;;;;;;;;8.75;100.00;99832.03;5110498;27;19925;-80
2023/04/01 08:46:14;;;;;;;;;;;;;;;8.75;100.00;99837.28;5122317;27;19915;-80
2023/04/01 08:48:42;;;;;;;;;;;;;;;8.78;100.00;99839.63;5099314;28;20295;-80
2023/04/01 08:51:12;;;;;;;;;;;;;;;8.76;100.00;99850.31;5107505;27;20014;-80
2023/04/01 08:53:59;;;;;;;;;;;;;;;8.72;100.00;99859.50;5092665;27;19930;-79
2023/04/01 08:56:43;;;;;;;;;;;;;;;8.76;100.00;99863.50;5098768;27;20379;-79
2023/04/01 08:59:35;;;;;;;;;;;;;;;8.78;100.00;99872.09;5098323;27;20401;-80
2023/04/01 09:02:28;;;;;;;;;;;;;;;8.87;100.00;99878.28;5109819;27;19915;-79
2023/04/01 09:05:24;;;;;;;;;;;;;;;8.97;100.00;99883.50;5109255;28;20443;-80
2023/04/01 09:08:04;;;;;;;;;;;;;;;8.94;100.00;99881.16;5104653;28;19920;-80
2023/04/01 09:10:48;;;;;;;;;;;;;;;8.95;100.00;99889.91;5082562;28;19919;-80
2023/04/01 09:13:48;;;;;;;;;;;;;;;8.99;100.00;99888.63;5080175;28;19931;-80
2023/04/01 09:16:22;;;;;;;;;;;;;;;9.08;100.00;99905.38;5084440;28;20455;-80
2023/04/01 09:19:12;;;;;;;;;;;;;;;9.13;100.00;99906.59;5105937;28;20074;-80
2023/04/01 09:21:48;;;;;;;;;;;;;;;9.20;100.00;99895.44;5055235;28;19923;-80
2023/04/01 09:24:24;;;;;;;;;;;;;;;9.20;100.00;99905.97;5086733;28;19919;-79
2023/04/01 09:27:00;;;;;;;;;;;;;;;9.26;100.00;99910.66;5071809;28;19919;-80
2023/04/01 09:29:48;;;;;;;;;;;;;;;9.32;100.00;99911.88;5101646;28;20326;-80
2023/04/01 09:32:21;;;;;;;;;;;;;;;9.37;100.00;99913.09;5099489;28;20358;-80
2023/04/01 09:35:05;;;;;;;;;;;;;;;9.37;100.00;99918.38;5092326;28;20295;-80
2023/04/01 09:37:42;;;;;;;;;;;;;;;9.40;100.00;99927.78;5103194;28;20412;-79
2023/04/01 09:40:18;;;;;;;;;;;;;;;9.38;100.00;99937.66;5079942;28;19916;-80
2023/04/01 09:43:15;;;;;;;;;;;;;;;9.38;100.00;99940.31;5100266;28;19926;-80
2023/04/01 09:46:05;;;;;;;;;;;;;;;9.34;100.00;99938.94;5081814;28;20374;-80
2023/04/01 09:48:37;;;;;;;;;;;;;;;9.30;100.00;99944.50;5086360;28;20010;-80
2023/04/01 09:51:07;;;;;;;;;;;;;;;9.33;100.00;99934.63;5100960;28;20288;-79
2023/04/01 09:53:44;;;;;;;;;;;;;;;9.41;100.00;99938.19;5106729;28;19923;-79
2023/04/01 09:56:15;;;;;;;;;;;;;;;9.49;100.00;99945.34;5106096;28;19943;-80
2023/04/01 09:58:46;;;;;;;;;;;;;;;9.54;100.00;99945.72;5100445;28;20043;-80
2023/04/01 10:01:46;;;;;;;;;;;;;;;9.61;100.00;99947.75;5104417;28;19920;-80
2023/04/01 10:04:23;;;;;;;;;;;;;;;9.74;100.00;99947.41;5102885;28;20018;-80
2023/04/01 10:07:12;;;;;;;;;;;;;;;9.83;100.00;99966.75;5105401;28;19916;-80
2023/04/01 10:09:42;;;;;;;;;;;;;;;9.89;100.00;99958.25;5085167;28;19924;-79
2023/04/01 10:12:10;;;;;;;;;;;;;;;9.90;100.00;99957.28;5086902;28;20341;-80
2023/04/01 10:14:57;;;;;;;;;;;;;;;9.85;100.00;99981.50;5101518;28;19920;-79
2023/04/01 10:17:32;;;;;;;;;;;;;;;9.88;100.00;99986.47;5098042;28;19930;-79
2023/04/01 10:20:21;;;;;;;;;;;;;;;9.95;100.00;99985.84;5086005;28;19997;-79
2023/04/01 10:22:57;;;;;;;;;;;;;;;9.83;100.00;99998.44;5073764;28;19916;-80
2023/04/01 10:25:30;;;;;;;;;;;;;;;9.82;100.00;100002.91;5108099;28;19965;-80
2023/04/01 10:28:30;;;;;;;;;;;;;;;9.86;100.00;100011.38;5101702;28;19959;-80
2023/04/01 10:31:35;;;;;;;;;;;;;;;9.71;100.00;100003.97;5105797;28;20014;-80
2023/04/01 10:34:18;;;;;;;;;;;;;;;9.61;100.00;100019.00;5098164;28;19919;-80
2023/04/01 10:36:49;;;;;;;;;;;;;;;9.64;100.00;100016.06;5084227;28;19923;-79
2023/04/01 10:39:39;;;;;;;;;;;;;;;9.78;100.00;100020.84;5102045;28;19923;-80
2023/04/01 10:42:43;;;;;;;;;;;;;;;9.77;100.00;100042.94;5091786;28;20265;-80
2023/04/01 10:45:29;;;;;;;;;;;;;;;9.70;100.00;100044.50;5097104;28;19916;-80
2023/04/01 10:48:14;;;;;;;;;;;;;;;9.72;100.00;100037.28;5094810;28;19916;-77
2023/04/01 10:51:02;;;;;;;;;;;;;;;9.77;100.00;100050.88;5081032;28;19964;-79
2023/04/01 10:53:48;;;;;;;;;;;;;;;9.87;100.00;100047.31;5068129;28;19915;-80
2023/04/01 10:56:57;;;;;;;;;;;;;;;10.01;100.00;100049.44;5041318;28;20011;-77
2023/04/01 10:59:45;;;;;;;;;;;;;;;10.20;100.00;100054.72;5015792;28;19916;-80
2023/04/01 11:02:37;;;;;;;;;;;;;;;10.36;100.00;100051.38;5090033;28;20007;-79
2023/04/01 11:05:32;;;;;;;;;;;;;;;10.50;100.00;100053.53;5090471;28;20389;-79
2023/04/01 11:08:44;;;;;;;;;;;;;;;10.49;100.00;100065.09;5081351;28;19916;-80
2023/04/01 11:11:18;;;;;;;;;;;;;;;10.61;100.00;100068.28;5017268;28;19992;-78
2023/04/01 11:13:48;;;;;;;;;;;;;;;10.58;100.00;100071.25;5099215;28;19924;-80
2023/04/01 11:16:42;;;;;;;;;;;;;;;10.39;100.00;100083.63;5104106;28;19920;-80
2023/04/01 11:19:14;;;;;;;;;;;;;;;10.23;100.00;100086.94;5102527;28;19919;-79
2023/04/01 11:21:56;;;;;;;;;;;;;;;10.24;100.00;100099.16;5108712;28;19969;-80
2023/04/01 11:24:46;;;;;;;;;;;;;;;10.28;100.00;100092.63;5101285;28;19923;-79
2023/04/01 11:27:37;;;;;;;;;;;;;;;10.48;100.00;100089.84;5102441;28;19972;-80
2023/04/01 11:30:07;;;;;;;;;;;;;;;10.63;100.00;100099.84;5078145;28;19919;-79
2023/04/01 11:32:40;;;;;;;;;;;;;;;10.91;100.00;100091.78;5079294;28;20459;-79
2023/04/01 11:35:13;;;;;;;;;;;;;;;11.03;100.00;100109.09;5069790;28;20412;-79
2023/04/01 11:38:00;;;;;;;;;;;;;;;11.14;100.00;100102.69;5096180;28;19924;-79
2023/04/01 11:40:54;;;;;;;;;;;;;;;11.35;100.00;100090.06;5094910;28;20428;-78
2023/04/01 11:43:55;;;;;;;;;;;;;;;11.57;100.00;100109.84;5104231;28;19920;-78
2023/04/01 11:46:56;;;;;;;;;;;;;;;11.49;100.00;100115.09;5095681;28;19927;-78
2023/04/01 11:49:42;;;;;;;;;;;;;;;11.01;100.00;100134.84;5102416;28;20321;-78
2023/04/01 11:52:39;;;;;;;;;;;;;;;10.73;100.00;100142.91;5071010;28;19923;-78
2023/04/01 11:55:25;;;;;;;;;;;;;;;10.51;100.00;100138.91;5096827;28;19915;-78
2023/04/01 11:58:12;;;;;;;;;;;;;;;10.54;100.00;100163.22;5086710;28;19920;-78
2023/04/01 12:00:40;;;;;;;;;;;;;;;10.56;100.00;100170.19;5091710;28;20022;-79
2023/04/01 12:03:27;;;;;;;;;;;;;;;10.66;100.00;100163.00;5109924;28;19916;-78
2023/04/01 12:06:17;;;;;;;;;;;;;;;10.85;100.00;100174.38;5074533;28;19923;-78
2023/04/01 12:09:05;;;;;;;;;;;;;;;10.95;100.00;100171.66;5085547;28;19920;-78
2023/04/01 12:11:44;;;;;;;;;;;;;;;11.05;100.00;100164.47;5101179;28;19924;-78
2023/04/01 12:14:18;;;;;;;;;;;;;;;11.02;100.00;100165.59;5068492;28;19920;-78
2023/04/01 12:17:00;;;;;;;;;;;;;;;10.95;100.00;100180.41;5087293;28;19920;-78
2023/04/01 12:19:36;;;;;;;;;;;;;;;11.18;100.00;100176.44;5058551;28;19916;-78
2023/04/01 12:22:28;;;;;;;;;;;;;;;11.44;100.00;100184.38;5101585;28;19916;-78
2023/04/01 12:25:14;;;;;;;;;;;;;;;11.63;100.00;100196.56;5060150;28;20257;-78
2023/04/01 12:28:03;;;;;;;;;;;;;;;11.79;100.00;100201.13;5069334;28;19924;-78
2023/04/01 12:30:41;;;;;;;;;;;;;;;11.74;100.00;100192.81;5069303;28;19919;-78
2023/04/01 12:33:20;;;;;;;;;;;;;;;10.97;100.00;100219.94;5062670;28;19924;-78
2023/04/01 12:35:55;;;;;;;;;;;;;;;10.44;100.00;100231.13;5089201;28;19923;-78
2023/04/01 12:38:25;;;;;;;;;;;;;;;10.17;100.00;100232.81;5090902;28;19915;-78
2023/04/01 12:41:19;;;;;;;;;;;;;;;10.16;100.00;100228.53;5089127;28;20402;-78
2023/04/01 12:43:59;;;;;;;;;;;;;;;10.33;100.00;100239.25;5073462;28;20293;-78
2023/04/01 12:46:47;;;;;;;;;;;;;;;10.65;100.00;100240.63;5082812;28;19915;-78
2023/04/01 12:49:45;;;;;;;;;;;;;;;11.00;100.00;100238.97;5093872;28;20006;-78
2023/04/01 12:52:50;;;;;;;;;;;;;;;11.21;100.00;100237.78;5067356;28;20422;-78
2023/04/01 12:55:36;;;;;;;;;;;;;;;11.31;100.00;100229.78;5024050;28;20042;-77
2023/04/01 12:58:12;;;;;;;;;;;;;;;11.19;100.00;100254.81;5070444;28;19928;-78
2023/04/01 13:00:45;;;;;;;;;;;;;;;11.17;100.00;100273.50;5071529;28;19930;-78
2023/04/01 13:03:14;;;;;;;;;;;;;;;11.26;100.00;100269.13;5071442;28;19920;-78
2023/04/01 13:06:03;;;;;;;;;;;;;;;11.34;100.00;100263.06;5105567;28;19928;-78
2023/04/01 13:08:48;;;;;;;;;;;;;;;11.35;100.00;100277.94;5106076;28;19944;-78
2023/04/01 13:11:23;;;;;;;;;;;;;;;11.18;100.00;100277.78;5114042;27;19916;-77
2023/04/01 13:14:07;;;;;;;;;;;;;;;11.17;100.00;100278.78;5101315;28;19916;-77
2023/04/01 13:16:51;;;;;;;;;;;;;;;11.13;100.00;100282.72;5110349;28;19920;-78
2023/04/01 13:19:40;;;;;;;;;;;;;;;11.28;100.00;100290.94;5104722;28;20356;-77
2023/04/01 13:22:14;;;;;;;;;;;;;;;11.61;100.00;100296.47;5102656;28;20286;-78
2023/04/01 13:24:50;;;;;;;;;;;;;;;11.44;100.00;100298.19;5097581;28;19916;-77
2023/04/01 13:27:20;;;;;;;;;;;;;;;11.10;100.00;100307.66;5096241;28;19960;-78
2023/04/01 13:30:02;;;;;;;;;;;;;;;10.95;100.00;100319.75;5103389;28;19916;-78
2023/04/01 13:32:43;;;;;;;;;;;;;;;11.04;100.00;100324.97;5110245;28;19927;-78
2023/04/01 13:35:14;;;;;;;;;;;;;;;11.31;100.00;100327.69;5092242;28;19951;-78